sensor_id;sensor_type;location;lat;lon;timestamp;pressure;altitude;pressure_sealevel;temperature;humidity
27425;BME280;15244;49.088;11.886;2023-05-23T00:00:25;95391.66;;;24.13;33.32
27425;BME280;15244;49.088;11.886;2023-05-23T00:05:27;95402.22;;;24.09;33.40
27425;BME280;15244;49.088;11.886;2023-05-23T00:10:29;95398.56;;;24.02;33.55
27425;BME280;15244;49.088;11.886;2023-05-23T00:15:31;95404.81;;;23.97;33.65
27425;BME280;15244;49.088;11.886;2023-05-23T00:20:35;95399.06;;;23.86;33.77
27425;BME280;15244;49.088;11.886;2023-05-23T00:25:37;95407.47;;;23.77;34.12
27425;BME280;15244;49.088;11.886;2023-05-23T00:30:41;95411.09;;;23.68;34.25
27425;BME280;15244;49.088;11.886;2023-05-23T00:35:43;95415.00;;;23.62;34.31
27425;BME280;15244;49.088;11.886;2023-05-23T00:40:45;95416.03;;;23.49;34.74
27425;BME280;15244;49.088;11.886;2023-05-23T00:45:47;95422.25;;;23.44;34.88
27425;BME280;15244;49.088;11.886;2023-05-23T00:50:49;95422.16;;;23.39;34.77
27425;BME280;15244;49.088;11.886;2023-05-23T00:55:51;95426.56;;;23.30;34.90
27425;BME280;15244;49.088;11.886;2023-05-23T01:00:53;95424.78;;;23.18;35.33
27425;BME280;15244;49.088;11.886;2023-05-23T01:05:56;95419.13;;;23.12;35.64
27425;BME280;15244;49.088;11.886;2023-05-23T01:11:00;95422.84;;;23.09;35.86
27425;BME280;15244;49.088;11.886;2023-05-23T01:16:05;95432.94;;;22.98;36.27
27425;BME280;15244;49.088;11.886;2023-05-23T01:21:15;95440.84;;;22.90;36.54
27425;BME280;15244;49.088;11.886;2023-05-23T01:26:31;95443.31;;;22.88;36.73
27425;BME280;15244;49.088;11.886;2023-05-23T01:31:35;95441.94;;;22.83;36.96
27425;BME280;15244;49.088;11.886;2023-05-23T01:36:41;95430.53;;;22.81;37.43
27425;BME280;15244;49.088;11.886;2023-05-23T01:41:43;95434.25;;;22.78;37.39
27425;BME280;15244;49.088;11.886;2023-05-23T01:46:46;95437.69;;;22.73;37.79
27425;BME280;15244;49.088;11.886;2023-05-23T01:51:48;95446.53;;;22.62;38.03
27425;BME280;15244;49.088;11.886;2023-05-23T01:56:51;95447.03;;;22.52;38.34
27425;BME280;15244;49.088;11.886;2023-05-23T02:01:52;95454.19;;;22.43;38.66
27425;BME280;15244;49.088;11.886;2023-05-23T02:06:54;95450.66;;;22.34;38.97
27425;BME280;15244;49.088;11.886;2023-05-23T02:11:56;95443.72;;;22.29;39.06
27425;BME280;15244;49.088;11.886;2023-05-23T02:16:57;95455.75;;;22.17;39.12
27425;BME280;15244;49.088;11.886;2023-05-23T02:22:01;95450.38;;;22.04;39.44
27425;BME280;15244;49.088;11.886;2023-05-23T02:27:02;95455.19;;;21.94;40.24
27425;BME280;15244;49.088;11.886;2023-05-23T02:32:04;95447.16;;;21.87;40.13
27425;BME280;15244;49.088;11.886;2023-05-23T02:37:06;95446.56;;;21.83;40.57
27425;BME280;15244;49.088;11.886;2023-05-23T02:42:09;95451.19;;;21.77;40.55
27425;BME280;15244;49.088;11.886;2023-05-23T02:47:11;95449.81;;;21.63;41.02
27425;BME280;15244;49.088;11.886;2023-05-23T02:52:13;95445.38;;;21.47;41.74
27425;BME280;15244;49.088;11.886;2023-05-23T02:57:15;95446.88;;;21.39;41.52
27425;BME280;15244;49.088;11.886;2023-05-23T03:02:16;95443.59;;;21.31;41.99
27425;BME280;15244;49.088;11.886;2023-05-23T03:07:18;95439.91;;;21.25;42.09
27425;BME280;15244;49.088;11.886;2023-05-23T03:12:29;95446.84;;;21.20;42.39
27425;BME280;15244;49.088;11.886;2023-05-23T03:17:31;95440.06;;;21.21;42.26
27425;BME280;15244;49.088;11.886;2023-05-23T03:22:32;95439.44;;;21.17;42.77
27425;BME280;15244;49.088;11.886;2023-05-23T03:27:36;95429.13;;;21.18;42.68
27425;BME280;15244;49.088;11.886;2023-05-23T03:32:38;95429.88;;;21.18;42.95
27425;BME280;15244;49.088;11.886;2023-05-23T03:37:40;95443.31;;;21.20;43.12
27425;BME280;15244;49.088;11.886;2023-05-23T03:42:41;95448.69;;;21.24;42.72
27425;BME280;15244;49.088;11.886;2023-05-23T03:47:44;95451.75;;;21.16;43.12
27425;BME280;15244;49.088;11.886;2023-05-23T03:52:46;95446.66;;;21.06;43.46
27425;BME280;15244;49.088;11.886;2023-05-23T03:57:48;95451.72;;;20.98;43.44
27425;BME280;15244;49.088;11.886;2023-05-23T04:02:51;95448.31;;;20.94;43.98
27425;BME280;15244;49.088;11.886;2023-05-23T04:07:57;95439.56;;;20.95;44.05
27425;BME280;15244;49.088;11.886;2023-05-23T04:13:02;95450.31;;;20.93;44.34
27425;BME280;15244;49.088;11.886;2023-05-23T04:18:04;95471.72;;;20.93;44.23
27425;BME280;15244;49.088;11.886;2023-05-23T04:23:08;95465.75;;;20.94;44.40
27425;BME280;15244;49.088;11.886;2023-05-23T04:28:12;95458.50;;;20.97;44.63
27425;BME280;15244;49.088;11.886;2023-05-23T04:33:16;95467.72;;;20.94;44.68
27425;BME280;15244;49.088;11.886;2023-05-23T04:38:19;95465.53;;;20.89;45.04
27425;BME280;15244;49.088;11.886;2023-05-23T04:43:22;95475.41;;;20.90;45.03
27425;BME280;15244;49.088;11.886;2023-05-23T04:48:32;95472.97;;;20.92;45.42
27425;BME280;15244;49.088;11.886;2023-05-23T04:53:35;95479.72;;;20.91;45.43
27425;BME280;15244;49.088;11.886;2023-05-23T04:58:37;95482.69;;;20.96;45.44
27425;BME280;15244;49.088;11.886;2023-05-23T05:03:42;95484.50;;;20.90;46.01
27425;BME280;15244;49.088;11.886;2023-05-23T05:08:44;95481.41;;;20.88;45.81
27425;BME280;15244;49.088;11.886;2023-05-23T05:13:46;95486.63;;;20.86;46.18
27425;BME280;15244;49.088;11.886;2023-05-23T05:18:48;95498.78;;;20.80;46.33
27425;BME280;15244;49.088;11.886;2023-05-23T05:23:56;95506.13;;;20.73;46.65
27425;BME280;15244;49.088;11.886;2023-05-23T05:29:04;95512.31;;;20.77;46.46
27425;BME280;15244;49.088;11.886;2023-05-23T05:34:07;95507.72;;;20.84;46.66
27425;BME280;15244;49.088;11.886;2023-05-23T05:39:32;95522.81;;;20.83;46.51
27425;BME280;15244;49.088;11.886;2023-05-23T05:44:40;95507.84;;;20.80;46.99
27425;BME280;15244;49.088;11.886;2023-05-23T05:49:47;95516.03;;;20.84;46.98
27425;BME280;15244;49.088;11.886;2023-05-23T05:54:53;95510.03;;;20.85;47.08
27425;BME280;15244;49.088;11.886;2023-05-23T05:59:55;95528.50;;;20.79;47.58
27425;BME280;15244;49.088;11.886;2023-05-23T06:04:59;95522.03;;;20.82;47.48
27425;BME280;15244;49.088;11.886;2023-05-23T06:10:01;95534.38;;;20.90;47.46
27425;BME280;15244;49.088;11.886;2023-05-23T06:15:05;95542.25;;;21.01;47.32
27425;BME280;15244;49.088;11.886;2023-05-23T06:20:08;95539.03;;;21.03;47.56
27425;BME280;15244;49.088;11.886;2023-05-23T06:25:12;95554.25;;;20.98;48.26
27425;BME280;15244;49.088;11.886;2023-05-23T06:30:14;95568.13;;;20.98;48.18
27425;BME280;15244;49.088;11.886;2023-05-23T06:35:16;95565.66;;;21.00;47.75
27425;BME280;15244;49.088;11.886;2023-05-23T06:40:18;95559.69;;;21.02;47.48
27425;BME280;15244;49.088;11.886;2023-05-23T06:45:20;95548.00;;;21.16;47.45
27425;BME280;15244;49.088;11.886;2023-05-23T06:50:22;95563.13;;;21.24;47.41
27425;BME280;15244;49.088;11.886;2023-05-23T06:55:25;95553.28;;;21.23;47.10
27425;BME280;15244;49.088;11.886;2023-05-23T07:00:30;95569.88;;;21.14;47.55
27425;BME280;15244;49.088;11.886;2023-05-23T07:05:47;95565.00;;;21.27;47.46
27425;BME280;15244;49.088;11.886;2023-05-23T07:10:51;95571.22;;;21.40;47.32
27425;BME280;15244;49.088;11.886;2023-05-23T07:16:07;95577.72;;;21.56;47.10
27425;BME280;15244;49.088;11.886;2023-05-23T07:21:22;95586.22;;;21.71;47.13
27425;BME280;15244;49.088;11.886;2023-05-23T07:26:43;95585.59;;;21.85;47.10
27425;BME280;15244;49.088;11.886;2023-05-23T07:31:49;95595.50;;;21.95;46.85
27425;BME280;15244;49.088;11.886;2023-05-23T07:36:53;95595.78;;;21.97;46.76
27425;BME280;15244;49.088;11.886;2023-05-23T07:41:58;95595.34;;;21.99;46.48
27425;BME280;15244;49.088;11.886;2023-05-23T07:47:00;95596.56;;;22.07;46.69
27425;BME280;15244;49.088;11.886;2023-05-23T07:52:02;95592.91;;;22.19;46.39
27425;BME280;15244;49.088;11.886;2023-05-23T07:57:09;95590.13;;;22.28;46.17
27425;BME280;15244;49.088;11.886;2023-05-23T08:02:16;95593.97;;;22.40;46.50
27425;BME280;15244;49.088;11.886;2023-05-23T08:07:54;95609.09;;;22.48;46.01
27425;BME280;15244;49.088;11.886;2023-05-23T08:13:09;95610.31;;;22.47;45.88
27425;BME280;15244;49.088;11.886;2023-05-23T08:18:21;95622.81;;;22.43;46.13
27425;BME280;15244;49.088;11.886;2023-05-23T08:23:23;95608.78;;;22.46;45.78
27425;BME280;15244;49.088;11.886;2023-05-23T08:28:25;95607.53;;;22.47;45.78
27425;BME280;15244;49.088;11.886;2023-05-23T08:33:28;95614.63;;;22.58;45.57
27425;BME280;15244;49.088;11.886;2023-05-23T08:38:32;95617.25;;;22.61;45.27
27425;BME280;15244;49.088;11.886;2023-05-23T08:43:42;95625.25;;;22.68;44.92
27425;BME280;15244;49.088;11.886;2023-05-23T08:48:55;95627.44;;;22.64;45.06
27425;BME280;15244;49.088;11.886;2023-05-23T08:53:59;95626.81;;;22.69;44.60
27425;BME280;15244;49.088;11.886;2023-05-23T08:59:04;95629.59;;;22.69;44.64
27425;BME280;15244;49.088;11.886;2023-05-23T09:04:11;95646.25;;;22.69;44.23
27425;BME280;15244;49.088;11.886;2023-05-23T09:09:23;95639.59;;;22.76;44.34
27425;BME280;15244;49.088;11.886;2023-05-23T09:14:26;95641.75;;;22.81;44.56
27425;BME280;15244;49.088;11.886;2023-05-23T09:19:39;95658.59;;;22.78;44.10
27425;BME280;15244;49.088;11.886;2023-05-23T09:24:57;95669.41;;;22.48;44.00
27425;BME280;15244;49.088;11.886;2023-05-23T09:30:08;95660.63;;;22.40;43.96
27425;BME280;15244;49.088;11.886;2023-05-23T09:35:11;95670.84;;;22.43;44.22
27425;BME280;15244;49.088;11.886;2023-05-23T09:40:15;95672.97;;;22.39;44.06
27425;BME280;15244;49.088;11.886;2023-05-23T09:45:31;95670.34;;;22.45;43.78
27425;BME280;15244;49.088;11.886;2023-05-23T09:50:35;95673.28;;;22.50;43.74
27425;BME280;15244;49.088;11.886;2023-05-23T09:55:37;95674.06;;;22.60;43.85
27425;BME280;15244;49.088;11.886;2023-05-23T10:00:41;95664.63;;;22.67;43.95
27425;BME280;15244;49.088;11.886;2023-05-23T10:21:43;95673.91;;;22.55;43.09
27425;BME280;15244;49.088;11.886;2023-05-23T10:26:50;95665.88;;;22.57;43.43
27425;BME280;15244;49.088;11.886;2023-05-23T10:31:53;95670.19;;;22.58;43.42
27425;BME280;15244;49.088;11.886;2023-05-23T10:36:59;95667.09;;;22.56;43.64
27425;BME280;15244;49.088;11.886;2023-05-23T10:42:06;95667.28;;;22.52;43.60
27425;BME280;15244;49.088;11.886;2023-05-23T10:47:10;95663.56;;;22.55;43.72
27425;BME280;15244;49.088;11.886;2023-05-23T10:52:15;95664.47;;;22.70;43.83
27425;BME280;15244;49.088;11.886;2023-05-23T10:57:19;95660.31;;;22.75;43.59
27425;BME280;15244;49.088;11.886;2023-05-23T11:02:26;95659.69;;;22.80;43.18
27425;BME280;15244;49.088;11.886;2023-05-23T11:07:31;95655.94;;;22.92;43.17
27425;BME280;15244;49.088;11.886;2023-05-23T11:12:38;95650.69;;;23.04;43.13
27425;BME280;15244;49.088;11.886;2023-05-23T11:17:49;95656.53;;;23.15;43.03
27425;BME280;15244;49.088;11.886;2023-05-23T11:22:59;95658.06;;;23.25;42.84
27425;BME280;15244;49.088;11.886;2023-05-23T11:28:03;95649.06;;;23.30;42.08
27425;BME280;15244;49.088;11.886;2023-05-23T11:33:10;95638.69;;;23.40;41.49
27425;BME280;15244;49.088;11.886;2023-05-23T11:38:14;95644.06;;;23.44;41.30
27425;BME280;15244;49.088;11.886;2023-05-23T11:43:17;95630.91;;;23.44;40.78
27425;BME280;15244;49.088;11.886;2023-05-23T11:48:20;95662.31;;;23.45;40.94
27425;BME280;15244;49.088;11.886;2023-05-23T11:53:22;95640.31;;;23.56;41.12
27425;BME280;15244;49.088;11.886;2023-05-23T11:58:29;95643.94;;;23.71;40.42
27425;BME280;15244;49.088;11.886;2023-05-23T12:03:32;95640.84;;;23.69;40.42
27425;BME280;15244;49.088;11.886;2023-05-23T12:08:34;95639.13;;;23.72;40.61
27425;BME280;15244;49.088;11.886;2023-05-23T12:13:36;95625.53;;;23.74;40.12
27425;BME280;15244;49.088;11.886;2023-05-23T12:18:41;95651.19;;;23.78;40.03
27425;BME280;15244;49.088;11.886;2023-05-23T12:23:43;95641.34;;;23.92;40.30
27425;BME280;15244;49.088;11.886;2023-05-23T12:28:45;95648.34;;;23.87;39.85
27425;BME280;15244;49.088;11.886;2023-05-23T12:33:48;95651.47;;;23.80;39.61
27425;BME280;15244;49.088;11.886;2023-05-23T12:38:50;95661.84;;;23.79;39.68
27425;BME280;15244;49.088;11.886;2023-05-23T12:43:54;95655.97;;;23.77;39.41
27425;BME280;15244;49.088;11.886;2023-05-23T12:48:56;95661.06;;;23.79;39.33
27425;BME280;15244;49.088;11.886;2023-05-23T12:53:58;95663.53;;;23.86;39.17
27425;BME280;15244;49.088;11.886;2023-05-23T12:59:01;95659.72;;;23.74;39.22
27425;BME280;15244;49.088;11.886;2023-05-23T13:04:03;95661.63;;;23.92;39.09
27425;BME280;15244;49.088;11.886;2023-05-23T13:09:05;95675.78;;;24.04;38.43
27425;BME280;15244;49.088;11.886;2023-05-23T13:14:07;95674.53;;;24.05;38.44
27425;BME280;15244;49.088;11.886;2023-05-23T13:19:08;95677.81;;;24.03;38.24
27425;BME280;15244;49.088;11.886;2023-05-23T13:24:10;95673.66;;;23.98;38.07
27425;BME280;15244;49.088;11.886;2023-05-23T13:29:11;95698.75;;;23.89;37.90
27425;BME280;15244;49.088;11.886;2023-05-23T13:34:13;95685.19;;;23.82;37.92
27425;BME280;15244;49.088;11.886;2023-05-23T13:39:15;95687.25;;;23.72;37.48
27425;BME280;15244;49.088;11.886;2023-05-23T13:44:20;95684.94;;;23.62;37.94
27425;BME280;15244;49.088;11.886;2023-05-23T13:49:24;95699.38;;;23.51;37.76
27425;BME280;15244;49.088;11.886;2023-05-23T13:54:26;95689.31;;;23.53;37.95
27425;BME280;15244;49.088;11.886;2023-05-23T13:59:28;95696.78;;;23.47;37.66
27425;BME280;15244;49.088;11.886;2023-05-23T14:04:31;95697.41;;;23.42;37.42
27425;BME280;15244;49.088;11.886;2023-05-23T14:09:35;95706.09;;;23.26;37.75
27425;BME280;15244;49.088;11.886;2023-05-23T14:14:40;95699.66;;;23.10;38.08
27425;BME280;15244;49.088;11.886;2023-05-23T14:19:45;95693.94;;;22.96;38.12
27425;BME280;15244;49.088;11.886;2023-05-23T14:24:47;95686.84;;;22.94;37.87
27425;BME280;15244;49.088;11.886;2023-05-23T14:29:53;95697.03;;;22.88;37.71
27425;BME280;15244;49.088;11.886;2023-05-23T14:34:54;95704.91;;;22.81;37.73
27425;BME280;15244;49.088;11.886;2023-05-23T14:39:59;95712.47;;;22.71;38.14
27425;BME280;15244;49.088;11.886;2023-05-23T14:45:03;95712.34;;;22.56;38.31
27425;BME280;15244;49.088;11.886;2023-05-23T14:50:07;95716.81;;;22.54;38.54
27425;BME280;15244;49.088;11.886;2023-05-23T14:55:09;95709.41;;;22.50;38.94
27425;BME280;15244;49.088;11.886;2023-05-23T15:00:12;95712.03;;;22.54;38.71
27425;BME280;15244;49.088;11.886;2023-05-23T15:05:14;95710.47;;;22.35;38.67
27425;BME280;15244;49.088;11.886;2023-05-23T15:10:16;95706.09;;;22.15;38.69
27425;BME280;15244;49.088;11.886;2023-05-23T15:15:18;95713.06;;;22.20;38.66
27425;BME280;15244;49.088;11.886;2023-05-23T15:20:25;95710.47;;;22.35;39.21
27425;BME280;15244;49.088;11.886;2023-05-23T15:25:27;95708.63;;;22.59;38.97
27425;BME280;15244;49.088;11.886;2023-05-23T15:30:48;95714.50;;;22.70;38.65
27425;BME280;15244;49.088;11.886;2023-05-23T15:35:54;95712.66;;;22.77;38.64
27425;BME280;15244;49.088;11.886;2023-05-23T15:40:56;95714.94;;;22.87;38.26
27425;BME280;15244;49.088;11.886;2023-05-23T15:46:00;95724.38;;;22.90;38.28
27425;BME280;15244;49.088;11.886;2023-05-23T15:51:02;95719.56;;;22.90;37.92
27425;BME280;15244;49.088;11.886;2023-05-23T15:56:04;95735.50;;;22.90;37.99
27425;BME280;15244;49.088;11.886;2023-05-23T16:01:06;95723.91;;;22.82;37.95
27425;BME280;15244;49.088;11.886;2023-05-23T16:06:10;95727.63;;;22.79;37.80
27425;BME280;15244;49.088;11.886;2023-05-23T16:11:12;95724.06;;;22.88;38.06
27425;BME280;15244;49.088;11.886;2023-05-23T16:16:13;95716.50;;;23.07;38.13
27425;BME280;15244;49.088;11.886;2023-05-23T16:21:15;95727.91;;;23.09;37.88
27425;BME280;15244;49.088;11.886;2023-05-23T16:26:21;95727.47;;;23.10;37.83
27425;BME280;15244;49.088;11.886;2023-05-23T16:31:26;95725.75;;;23.13;37.99
27425;BME280;15244;49.088;11.886;2023-05-23T16:36:28;95736.06;;;23.31;38.24
27425;BME280;15244;49.088;11.886;2023-05-23T16:41:31;95744.69;;;23.42;38.13
27425;BME280;15244;49.088;11.886;2023-05-23T16:46:32;95739.78;;;23.28;37.88
27425;BME280;15244;49.088;11.886;2023-05-23T16:51:34;95741.63;;;23.22;37.35
27425;BME280;15244;49.088;11.886;2023-05-23T16:56:37;95736.75;;;23.07;37.63
27425;BME280;15244;49.088;11.886;2023-05-23T17:01:39;95744.63;;;23.00;37.77
27425;BME280;15244;49.088;11.886;2023-05-23T17:06:41;95747.38;;;22.90;37.68
27425;BME280;15244;49.088;11.886;2023-05-23T17:11:43;95739.50;;;22.89;38.06
27425;BME280;15244;49.088;11.886;2023-05-23T17:16:45;95744.91;;;22.92;37.81
27425;BME280;15244;49.088;11.886;2023-05-23T17:21:47;95745.06;;;22.89;37.97
27425;BME280;15244;49.088;11.886;2023-05-23T17:26:48;95743.50;;;22.79;38.15
27425;BME280;15244;49.088;11.886;2023-05-23T17:31:50;95754.63;;;22.69;38.30
27425;BME280;15244;49.088;11.886;2023-05-23T17:36:52;95757.88;;;22.59;38.33
27425;BME280;15244;49.088;11.886;2023-05-23T17:41:53;95765.72;;;22.42;38.59
27425;BME280;15244;49.088;11.886;2023-05-23T17:46:55;95777.28;;;22.31;38.76
27425;BME280;15244;49.088;11.886;2023-05-23T17:51:57;95768.22;;;21.99;39.46
27425;BME280;15244;49.088;11.886;2023-05-23T17:56:59;95767.69;;;21.82;39.25
27425;BME280;15244;49.088;11.886;2023-05-23T18:02:02;95773.00;;;21.58;39.41
27425;BME280;15244;49.088;11.886;2023-05-23T18:07:05;95766.44;;;21.43;39.25
27425;BME280;15244;49.088;11.886;2023-05-23T18:12:07;95777.66;;;21.39;39.62
27425;BME280;15244;49.088;11.886;2023-05-23T18:17:09;95777.00;;;21.35;39.77
27425;BME280;15244;49.088;11.886;2023-05-23T18:22:11;95782.66;;;21.32;39.66
27425;BME280;15244;49.088;11.886;2023-05-23T18:27:14;95786.47;;;21.25;39.83
27425;BME280;15244;49.088;11.886;2023-05-23T18:32:16;95785.31;;;21.13;40.08
27425;BME280;15244;49.088;11.886;2023-05-23T18:37:18;95785.38;;;21.00;40.26
27425;BME280;15244;49.088;11.886;2023-05-23T18:42:20;95792.75;;;20.94;40.69
27425;BME280;15244;49.088;11.886;2023-05-23T18:47:22;95798.72;;;20.93;40.82
27425;BME280;15244;49.088;11.886;2023-05-23T18:52:24;95803.94;;;20.91;41.32
27425;BME280;15244;49.088;11.886;2023-05-23T18:57:25;95811.91;;;20.89;41.20
27425;BME280;15244;49.088;11.886;2023-05-23T19:02:27;95822.22;;;20.88;41.38
27425;BME280;15244;49.088;11.886;2023-05-23T19:07:29;95821.91;;;20.86;41.63
27425;BME280;15244;49.088;11.886;2023-05-23T19:12:32;95823.91;;;20.86;41.74
27425;BME280;15244;49.088;11.886;2023-05-23T19:17:35;95830.34;;;20.83;41.95
27425;BME280;15244;49.088;11.886;2023-05-23T19:22:37;95832.47;;;20.78;41.80
27425;BME280;15244;49.088;11.886;2023-05-23T19:27:52;95844.25;;;20.70;42.12
27425;BME280;15244;49.088;11.886;2023-05-23T19:32:54;95852.91;;;20.59;42.35
27425;BME280;15244;49.088;11.886;2023-05-23T19:37:57;95858.22;;;20.53;42.45
27425;BME280;15244;49.088;11.886;2023-05-23T19:42:58;95873.50;;;20.45;42.58
27425;BME280;15244;49.088;11.886;2023-05-23T19:48:00;95881.59;;;20.40;42.83
27425;BME280;15244;49.088;11.886;2023-05-23T19:53:02;95880.28;;;20.31;42.92
27425;BME280;15244;49.088;11.886;2023-05-23T19:58:04;95893.22;;;20.22;43.07
27425;BME280;15244;49.088;11.886;2023-05-23T20:03:06;95905.53;;;20.21;43.36
27425;BME280;15244;49.088;11.886;2023-05-23T20:08:08;95904.41;;;20.18;43.66
27425;BME280;15244;49.088;11.886;2023-05-23T20:13:10;95918.81;;;20.13;43.59
27425;BME280;15244;49.088;11.886;2023-05-23T20:18:11;95915.03;;;20.07;43.63
27425;BME280;15244;49.088;11.886;2023-05-23T20:23:13;95925.22;;;20.10;43.69
27425;BME280;15244;49.088;11.886;2023-05-23T20:28:15;95934.63;;;20.12;43.58
27425;BME280;15244;49.088;11.886;2023-05-23T20:33:17;95931.22;;;20.08;43.67
27425;BME280;15244;49.088;11.886;2023-05-23T20:38:19;95936.16;;;19.88;43.78
27425;BME280;15244;49.088;11.886;2023-05-23T20:43:21;95952.72;;;19.75;43.75
27425;BME280;15244;49.088;11.886;2023-05-23T20:48:23;95953.44;;;19.63;43.83
27425;BME280;15244;49.088;11.886;2023-05-23T20:53:25;95955.25;;;19.53;44.16
27425;BME280;15244;49.088;11.886;2023-05-23T20:58:27;95959.75;;;19.47;44.05
27425;BME280;15244;49.088;11.886;2023-05-23T21:03:28;95954.88;;;19.38;44.20
27425;BME280;15244;49.088;11.886;2023-05-23T21:08:30;95966.88;;;19.32;44.32
27425;BME280;15244;49.088;11.886;2023-05-23T21:13:35;95965.63;;;19.20;44.52
27425;BME280;15244;49.088;11.886;2023-05-23T21:18:40;95963.22;;;19.22;44.61
27425;BME280;15244;49.088;11.886;2023-05-23T21:23:41;95965.00;;;19.28;44.50
27425;BME280;15244;49.088;11.886;2023-05-23T21:28:43;95961.69;;;19.34;44.63
27425;BME280;15244;49.088;11.886;2023-05-23T21:33:45;95968.09;;;19.31;44.53
27425;BME280;15244;49.088;11.886;2023-05-23T21:38:47;95969.84;;;19.24;44.60
27425;BME280;15244;49.088;11.886;2023-05-23T21:43:48;95969.00;;;19.11;44.67
27425;BME280;15244;49.088;11.886;2023-05-23T21:48:50;95969.88;;;19.08;44.83
27425;BME280;15244;49.088;11.886;2023-05-23T21:53:51;95971.09;;;19.07;44.89
27425;BME280;15244;49.088;11.886;2023-05-23T21:58:53;95977.81;;;19.06;44.72
27425;BME280;15244;49.088;11.886;2023-05-23T22:03:54;95976.78;;;19.00;44.58
27425;BME280;15244;49.088;11.886;2023-05-23T22:08:56;95981.34;;;18.90;44.72
27425;BME280;15244;49.088;11.886;2023-05-23T22:13:59;95964.53;;;18.84;44.64
27425;BME280;15244;49.088;11.886;2023-05-23T22:19:01;95963.47;;;18.78;44.78
27425;BME280;15244;49.088;11.886;2023-05-23T22:24:05;95958.44;;;18.73;44.84
27425;BME280;15244;49.088;11.886;2023-05-23T22:29:07;95962.16;;;18.67;44.81
27425;BME280;15244;49.088;11.886;2023-05-23T22:34:08;95966.78;;;18.53;45.02
27425;BME280;15244;49.088;11.886;2023-05-23T22:39:10;95966.13;;;18.49;45.16
27425;BME280;15244;49.088;11.886;2023-05-23T22:44:12;95976.03;;;18.47;45.34
27425;BME280;15244;49.088;11.886;2023-05-23T22:49:14;95964.72;;;18.41;45.42
27425;BME280;15244;49.088;11.886;2023-05-23T22:54:16;95967.13;;;18.39;45.61
27425;BME280;15244;49.088;11.886;2023-05-23T22:59:17;95958.16;;;18.35;45.74
27425;BME280;15244;49.088;11.886;2023-05-23T23:04:19;95965.31;;;18.32;45.83
27425;BME280;15244;49.088;11.886;2023-05-23T23:09:24;95966.16;;;18.29;46.20
27425;BME280;15244;49.088;11.886;2023-05-23T23:14:26;95960.66;;;18.29;45.97
27425;BME280;15244;49.088;11.886;2023-05-23T23:19:28;95968.50;;;18.31;46.20
27425;BME280;15244;49.088;11.886;2023-05-23T23:24:30;95971.06;;;18.22;46.38
27425;BME280;15244;49.088;11.886;2023-05-23T23:29:31;95964.03;;;18.01;46.63
27425;BME280;15244;49.088;11.886;2023-05-23T23:34:33;95950.38;;;17.93;46.92
27425;BME280;15244;49.088;11.886;2023-05-23T23:39:35;95950.53;;;17.86;47.22
27425;BME280;15244;49.088;11.886;2023-05-23T23:44:36;95952.06;;;17.87;47.30
27425;BME280;15244;49.088;11.886;2023-05-23T23:49:38;95958.31;;;17.91;47.22
27425;BME280;15244;49.088;11.886;2023-05-23T23:54:39;95956.47;;;17.85;47.50
27425;BME280;15244;49.088;11.886;2023-05-23T23:59:41;95953.78;;;17.81;47.64
